Portada
METAR-TAF:

METAR-TAF

Aeroports :

Jersey,

latitud: 49-13N, longitud: 002-12W, altitud: 84 m

Observació

L'informe es va fer fa 30 minuts, a les 15:50 UTC
Vent 11 kt del Sud-Oest
Temperatura 11°C
Humitat 87%
Pressió 1016 hPa
Visibilitat 10 km o més
Escasses núvols a una alçada de 1200 ft
Cel ennuvolat a una alçada de 2700 ft

METAR: EGJJ 071550Z 22011KT 9999 FEW012 BKN027 11/09 Q1016

Hora: 16:20 (16:20 UTC)

Pronòstic

L'informe es va fer fa 2 hores i 16 minuts, a les 14:04 UTC
Pronòstic vàlid del 07 a les 15 UTC al 08 a les 00 UTC
Vent 13 kt del Sud-Oest
Visibilitat 10 km o més
Núvols disperses a una alçada de 1500 ft
Cel ennuvolat a una alçada de 2500 ft
Probabilitat 40% :
Temporalment
l' 07 a les 15 UTC al 08 a les 00 UTC
Cel ennuvolat a una alçada de 1400 ft
Evolucionant progressivament
l' 07 a les 22 UTC al 08 a les 00 UTC
Vent 20 kt del Sud-Oest amb ràfegues de 30 kt

TAF: EGJJ 071404Z 0715/0800 22013KT 9999 SCT015 BKN025 PROB40 TEMPO 0715/0800 BKN014 BECMG 0722/0800 22020G30KT

Observacions i pronòstics meteorològics de més de 4000 aeroports (METAR i TAF).

Les estacions disponibles són els punts grocs i vermells al mapa.

Posi el ratolí al punt desitjat per veure el nom de l'estació.

Feu clic per veure les observacions i els pronòstics meteorològics.

Per canviar el mapa: feu clic els botons verds amb una creu de color negre per apropar; al botó verd amb un guió per allunyar la imatge; o en les fletxes verdes per a mapes adjacents.


METAR-TAF: